Time;durP1;ratioP1;P1;durP2;ratioP2;P2;SDS_P1;SDS_P2;PMS_P1;PMS_P2;Temp;Humidity;BMP_temperature;BMP_pressure;BME280_temperature;BME280_humidity;BME280_pressure;Samples;Min_cycle;Max_cycle;Signal;HPM_P1;HPM_P2
2023/01/21 00:01:16;;;;;;;20.03;6.93;;;;;;;;;;5010148;28;20371;-81
2023/01/21 00:03:44;;;;;;;15.07;6.23;;;;;;;;;;4993450;28;20145;-81
2023/01/21 00:06:13;;;;;;;13.77;6.07;;;;;;;;;;5009769;28;20474;-81
2023/01/21 00:08:39;;;;;;;20.03;7.33;;;;;;;;;;5011257;28;20033;-81
2023/01/21 00:11:15;;;;;;;19.60;7.37;;;;;;;;;;5010614;28;20026;-81
2023/01/21 00:13:42;;;;;;;14.27;5.70;;;;;;;;;;5008826;28;20038;-81
2023/01/21 00:16:08;;;;;;;18.63;6.63;;;;;;;;;;5008446;28;20022;-81
2023/01/21 00:18:34;;;;;;;15.43;6.40;;;;;;;;;;5008352;28;20030;-81
2023/01/21 00:21:00;;;;;;;13.27;5.73;;;;;;;;;;5008293;28;20029;-80
2023/01/21 00:23:27;;;;;;;23.13;6.87;;;;;;;;;;5009916;28;20030;-80
2023/01/21 00:25:57;;;;;;;15.70;7.10;;;;;;;;;;5008363;28;20506;-81
2023/01/21 00:28:25;;;;;;;13.80;6.30;;;;;;;;;;5008211;28;20451;-80
2023/01/21 00:30:50;;;;;;;15.83;7.10;;;;;;;;;;5008781;28;20122;-81
2023/01/21 00:33:16;;;;;;;17.37;6.27;;;;;;;;;;5009705;28;20097;-79
2023/01/21 00:35:41;;;;;;;17.80;7.53;;;;;;;;;;5008836;28;20470;-80
2023/01/21 00:38:07;;;;;;;14.27;6.37;;;;;;;;;;5016253;28;20014;-80
2023/01/21 00:40:32;;;;;;;17.83;6.97;;;;;;;;;;5028153;28;20625;-79
2023/01/21 00:42:58;;;;;;;17.13;6.37;;;;;;;;;;5028352;28;20026;-80
2023/01/21 00:45:23;;;;;;;18.43;6.37;;;;;;;;;;5028191;28;20053;-80
2023/01/21 00:47:49;;;;;;;18.37;7.07;;;;;;;;;;5028125;28;20018;-81
2023/01/21 00:50:14;;;;;;;16.13;5.87;;;;;;;;;;5028436;28;20025;-80
2023/01/21 00:52:40;;;;;;;16.53;6.73;;;;;;;;;;5028174;28;20120;-81
2023/01/21 00:55:05;;;;;;;18.47;6.43;;;;;;;;;;5027898;28;20032;-81
2023/01/21 00:57:31;;;;;;;15.67;6.30;;;;;;;;;;5027844;28;20036;-80
2023/01/21 00:59:56;;;;;;;19.97;7.87;;;;;;;;;;5028297;28;20026;-80
2023/01/21 01:02:22;;;;;;;16.00;7.00;;;;;;;;;;5028655;28;20566;-81
2023/01/21 01:04:48;;;;;;;16.00;6.00;;;;;;;;;;5016114;28;20032;-80
2023/01/21 01:07:13;;;;;;;25.27;7.50;;;;;;;;;;5032001;28;20044;-81
2023/01/21 01:09:39;;;;;;;12.43;5.93;;;;;;;;;;5033071;28;20029;-81
2023/01/21 01:12:05;;;;;;;18.03;6.97;;;;;;;;;;5031648;28;20068;-81
2023/01/21 01:14:30;;;;;;;14.93;6.27;;;;;;;;;;5033055;28;20025;-80
2023/01/21 01:16:56;;;;;;;12.80;5.97;;;;;;;;;;5033816;28;20028;-81
2023/01/21 01:19:21;;;;;;;16.43;6.73;;;;;;;;;;5033675;28;20025;-80
2023/01/21 01:21:47;;;;;;;13.90;5.60;;;;;;;;;;5032653;28;20608;-81
2023/01/21 01:24:12;;;;;;;17.50;6.93;;;;;;;;;;5032458;28;20112;-80
2023/01/21 01:26:40;;;;;;;15.37;6.27;;;;;;;;;;5033715;28;20034;-80
2023/01/21 01:29:06;;;;;;;16.87;6.37;;;;;;;;;;5031843;28;20033;-80
2023/01/21 01:31:31;;;;;;;17.10;7.30;;;;;;;;;;5014440;28;20032;-80
2023/01/21 01:33:57;;;;;;;16.03;6.00;;;;;;;;;;5031483;28;20052;-80
2023/01/21 01:36:23;;;;;;;17.87;6.93;;;;;;;;;;5032251;28;20454;-81
2023/01/21 01:38:48;;;;;;;21.20;7.27;;;;;;;;;;5032008;28;20057;-81
2023/01/21 01:41:16;;;;;;;15.47;5.90;;;;;;;;;;5032207;28;20031;-81
2023/01/21 01:43:58;;;;;;;20.30;7.27;;;;;;;;;;5031677;28;20025;-80
2023/01/21 01:46:26;;;;;;;17.33;6.80;;;;;;;;;;5031354;28;20053;-80
2023/01/21 01:49:12;;;;;;;17.10;6.33;;;;;;;;;;5031769;28;20124;-80
2023/01/21 01:51:46;;;;;;;14.77;6.17;;;;;;;;;;5032743;28;20061;-80
2023/01/21 01:54:17;;;;;;;18.53;7.63;;;;;;;;;;5033015;28;20045;-80
2023/01/21 01:56:45;;;;;;;13.90;6.77;;;;;;;;;;5034504;28;20056;-81
2023/01/21 01:59:11;;;;;;;23.53;6.73;;;;;;;;;;5032669;28;20029;-81
2023/01/21 02:01:37;;;;;;;22.87;8.37;;;;;;;;;;5032538;28;20124;-81
2023/01/21 02:04:09;;;;;;;14.73;6.17;;;;;;;;;;5031105;28;20025;-79
2023/01/21 02:06:34;;;;;;;15.33;7.07;;;;;;;;;;5030331;28;20069;-80
2023/01/21 02:09:00;;;;;;;14.33;6.30;;;;;;;;;;5030311;28;20064;-80
2023/01/21 02:11:25;;;;;;;19.03;7.53;;;;;;;;;;5031411;28;20341;-80
2023/01/21 02:13:55;;;;;;;19.20;7.83;;;;;;;;;;5031160;28;20044;-81
2023/01/21 02:16:58;;;;;;;17.77;6.73;;;;;;;;;;5031743;28;20029;-79
2023/01/21 02:19:41;;;;;;;22.73;7.45;;;;;;;;;;5030319;28;20608;-80
2023/01/21 02:22:50;;;;;;;20.40;8.23;;;;;;;;;;5030671;28;20477;-80
2023/01/21 02:25:15;;;;;;;25.10;8.20;;;;;;;;;;5029628;28;20033;-80
2023/01/21 02:28:07;;;;;;;17.87;6.90;;;;;;;;;;5032511;28;20033;-80
2023/01/21 02:30:56;;;;;;;22.97;8.13;;;;;;;;;;5021805;28;20124;-80
2023/01/21 02:33:34;;;;;;;15.83;7.50;;;;;;;;;;5030369;28;20390;-81
2023/01/21 02:36:20;;;;;;;18.87;7.70;;;;;;;;;;5030065;28;20030;-80
2023/01/21 02:38:56;;;;;;;20.00;7.80;;;;;;;;;;5018144;28;20536;-80
2023/01/21 02:41:31;;;;;;;18.80;7.13;;;;;;;;;;5011777;28;20029;-80
2023/01/21 02:44:06;;;;;;;19.00;6.80;;;;;;;;;;5010328;28;20474;-80
2023/01/21 02:46:48;;;;;;;17.43;7.07;;;;;;;;;;5011054;28;20054;-80
2023/01/21 02:49:21;;;;;;;17.83;7.15;;;;;;;;;;5012950;28;20026;-80
2023/01/21 02:51:48;;;;;;;17.97;7.77;;;;;;;;;;5010306;28;20061;-80
2023/01/21 02:54:38;;;;;;;23.37;7.93;;;;;;;;;;5011898;28;20032;-81
2023/01/21 02:57:10;;;;;;;20.37;7.30;;;;;;;;;;5011897;28;20116;-80
2023/01/21 02:59:38;;;;;;;14.88;6.93;;;;;;;;;;5010708;28;20091;-79
2023/01/21 03:02:29;;;;;;;19.90;7.57;;;;;;;;;;5010549;28;20051;-81
2023/01/21 03:05:08;;;;;;;18.47;6.97;;;;;;;;;;5011188;28;20112;-81
2023/01/21 03:07:39;;;;;;;18.67;7.27;;;;;;;;;;5009550;28;20084;-81
2023/01/21 03:10:49;;;;;;;17.67;7.30;;;;;;;;;;5011190;28;20052;-80
2023/01/21 03:16:55;;;;;;;17.23;7.60;;;;;;;;;;5002922;28;20045;-80
2023/01/21 03:18:59;;;;;;;20.83;8.00;;;;;;;;;;5032963;28;20159;-80
2023/01/21 03:21:27;;;;;;;17.63;8.13;;;;;;;;;;5032661;28;20040;-80
2023/01/21 03:23:54;;;;;;;27.30;9.27;;;;;;;;;;5030672;28;20025;-80
2023/01/21 03:26:27;;;;;;;26.50;9.30;;;;;;;;;;5028292;28;20033;-80
2023/01/21 03:28:56;;;;;;;20.00;6.93;;;;;;;;;;5028797;28;20191;-79
2023/01/21 03:31:28;;;;;;;19.53;7.90;;;;;;;;;;5028614;28;20022;-81
2023/01/21 03:33:58;;;;;;;16.02;6.63;;;;;;;;;;5012424;28;20035;-79
2023/01/21 03:36:45;;;;;;;13.27;6.13;;;;;;;;;;5028568;28;20087;-80
2023/01/21 03:39:35;;;;;;;15.63;6.93;;;;;;;;;;5028723;28;20029;-79
2023/01/21 03:42:01;;;;;;;18.03;7.43;;;;;;;;;;5030322;28;20093;-80
2023/01/21 03:44:26;;;;;;;17.33;7.30;;;;;;;;;;5030948;28;20116;-80
2023/01/21 03:47:05;;;;;;;19.07;7.33;;;;;;;;;;5030995;28;20072;-80
2023/01/21 03:49:39;;;;;;;15.90;7.43;;;;;;;;;;5029582;28;20049;-80
2023/01/21 03:52:07;;;;;;;16.53;6.73;;;;;;;;;;5029375;28;20029;-79
2023/01/21 03:54:32;;;;;;;18.03;6.80;;;;;;;;;;5030125;28;20095;-79
2023/01/21 03:56:58;;;;;;;17.00;7.13;;;;;;;;;;5028621;28;20029;-79
2023/01/21 03:59:23;;;;;;;14.37;7.60;;;;;;;;;;5029577;28;20033;-79
2023/01/21 04:01:49;;;;;;;18.83;8.13;;;;;;;;;;5028446;28;20465;-79
2023/01/21 04:04:14;;;;;;;20.27;7.53;;;;;;;;;;5028327;28;20022;-79
2023/01/21 04:06:40;;;;;;;19.23;7.53;;;;;;;;;;5028000;28;20061;-79
2023/01/21 04:09:06;;;;;;;15.83;7.43;;;;;;;;;;5028288;28;20060;-79
2023/01/21 04:11:33;;;;;;;21.37;8.07;;;;;;;;;;5028289;28;20037;-79
2023/01/21 04:13:58;;;;;;;15.07;6.87;;;;;;;;;;5028496;28;20048;-79
2023/01/21 04:16:24;;;;;;;19.20;8.23;;;;;;;;;;5030020;28;20029;-78
2023/01/21 04:18:50;;;;;;;15.80;7.37;;;;;;;;;;5027981;28;20032;-78
2023/01/21 04:21:15;;;;;;;18.30;7.20;;;;;;;;;;5027867;28;20037;-78
2023/01/21 04:23:41;;;;;;;18.33;7.07;;;;;;;;;;5029376;28;20157;-77
2023/01/21 04:26:06;;;;;;;16.77;6.60;;;;;;;;;;5029241;28;20025;-79
2023/01/21 04:28:34;;;;;;;17.90;6.90;;;;;;;;;;5028114;28;20025;-78
2023/01/21 04:30:59;;;;;;;14.03;6.87;;;;;;;;;;5028496;28;20127;-79
2023/01/21 04:33:25;;;;;;;21.00;7.83;;;;;;;;;;5029565;28;20080;-78
2023/01/21 04:35:50;;;;;;;14.50;6.67;;;;;;;;;;5029258;28;20548;-77
2023/01/21 04:38:18;;;;;;;13.10;6.43;;;;;;;;;;5029948;28;20025;-79
2023/01/21 04:40:44;;;;;;;19.27;6.97;;;;;;;;;;5031540;28;20549;-79
2023/01/21 04:43:09;;;;;;;13.47;6.77;;;;;;;;;;5031734;28;20136;-79
2023/01/21 04:45:35;;;;;;;13.93;6.80;;;;;;;;;;5032928;28;20037;-79
2023/01/21 04:48:00;;;;;;;16.33;6.53;;;;;;;;;;5033266;28;20103;-79
2023/01/21 04:50:26;;;;;;;15.07;6.63;;;;;;;;;;5031630;28;20047;-78
2023/01/21 04:52:51;;;;;;;12.77;6.27;;;;;;;;;;5033071;28;20113;-78
2023/01/21 04:55:17;;;;;;;13.80;5.53;;;;;;;;;;5031508;28;20049;-78
2023/01/21 04:57:43;;;;;;;14.70;6.37;;;;;;;;;;5032014;28;20029;-78
2023/01/21 05:00:10;;;;;;;16.27;6.93;;;;;;;;;;5033259;28;20034;-77
2023/01/21 05:02:35;;;;;;;17.47;6.47;;;;;;;;;;5032534;28;20033;-78
2023/01/21 05:05:01;;;;;;;15.30;6.47;;;;;;;;;;5033181;28;20030;-78
2023/01/21 05:07:27;;;;;;;17.70;6.57;;;;;;;;;;5014979;28;20323;-77
2023/01/21 05:09:52;;;;;;;12.97;5.30;;;;;;;;;;5031376;28;20072;-78
2023/01/21 05:12:18;;;;;;;13.43;5.40;;;;;;;;;;5032826;28;20044;-79
2023/01/21 05:14:43;;;;;;;13.87;5.40;;;;;;;;;;5032595;28;20036;-78
2023/01/21 05:17:09;;;;;;;14.33;5.67;;;;;;;;;;5031149;28;20052;-78
2023/01/21 05:19:35;;;;;;;16.63;6.57;;;;;;;;;;5033049;28;20025;-79
2023/01/21 05:22:00;;;;;;;12.97;6.20;;;;;;;;;;5031974;28;20036;-78
2023/01/21 05:24:26;;;;;;;18.57;6.20;;;;;;;;;;5033032;28;20461;-77
2023/01/21 05:26:52;;;;;;;14.50;6.07;;;;;;;;;;5014887;28;20120;-76
2023/01/21 05:29:19;;;;;;;8.40;3.97;;;;;;;;;;5031412;28;20028;-78
2023/01/21 05:31:45;;;;;;;13.33;5.13;;;;;;;;;;5031365;28;20034;-78
2023/01/21 05:34:11;;;;;;;13.73;6.10;;;;;;;;;;5031649;28;20382;-78
2023/01/21 05:36:37;;;;;;;11.33;4.90;;;;;;;;;;5031010;28;20478;-77
2023/01/21 05:39:02;;;;;;;14.37;5.50;;;;;;;;;;4999034;28;20040;-77
2023/01/21 05:41:28;;;;;;;14.57;5.90;;;;;;;;;;5010866;28;20025;-78
2023/01/21 05:43:54;;;;;;;13.37;6.00;;;;;;;;;;5011235;28;20109;-77
2023/01/21 05:46:21;;;;;;;16.17;5.80;;;;;;;;;;5010846;28;20403;-77
2023/01/21 05:48:46;;;;;;;16.33;5.87;;;;;;;;;;5011003;28;20159;-77
2023/01/21 05:51:12;;;;;;;12.70;5.63;;;;;;;;;;5012742;28;20466;-78
2023/01/21 05:53:38;;;;;;;11.13;5.27;;;;;;;;;;5012820;28;20044;-76
2023/01/21 05:56:04;;;;;;;13.40;5.70;;;;;;;;;;5013538;28;20030;-77
2023/01/21 05:58:29;;;;;;;12.80;6.20;;;;;;;;;;5012633;28;20065;-77
2023/01/21 06:00:56;;;;;;;13.30;5.73;;;;;;;;;;5012566;28;20040;-78
2023/01/21 06:03:22;;;;;;;11.20;5.70;;;;;;;;;;5012826;28;20401;-77
2023/01/21 06:05:48;;;;;;;11.13;5.60;;;;;;;;;;5010739;28;20033;-78
2023/01/21 06:08:14;;;;;;;13.40;5.10;;;;;;;;;;5010671;28;20037;-77
2023/01/21 06:10:40;;;;;;;13.87;5.23;;;;;;;;;;5010102;28;20080;-77
2023/01/21 06:13:06;;;;;;;11.50;4.87;;;;;;;;;;5011021;28;20026;-77
2023/01/21 06:15:32;;;;;;;9.67;4.63;;;;;;;;;;5013070;28;20471;-77
2023/01/21 06:17:59;;;;;;;12.00;4.80;;;;;;;;;;5011510;28;20033;-77
2023/01/21 06:20:29;;;;;;;11.33;5.13;;;;;;;;;;5010754;28;20029;-79
2023/01/21 06:22:55;;;;;;;10.33;5.40;;;;;;;;;;5009883;28;20037;-77
2023/01/21 06:25:21;;;;;;;11.67;5.83;;;;;;;;;;5009772;28;20037;-77
2023/01/21 06:27:47;;;;;;;12.40;4.80;;;;;;;;;;5011019;28;20100;-77
2023/01/21 06:30:12;;;;;;;11.67;5.53;;;;;;;;;;5010817;28;20018;-78
2023/01/21 06:32:38;;;;;;;10.27;5.33;;;;;;;;;;5009647;28;20056;-76
2023/01/21 06:35:04;;;;;;;12.37;5.60;;;;;;;;;;5011416;28;20026;-78
2023/01/21 06:37:30;;;;;;;11.97;5.47;;;;;;;;;;5010951;28;20030;-78
2023/01/21 06:39:55;;;;;;;14.80;5.17;;;;;;;;;;5009589;28;20060;-77
2023/01/21 06:42:21;;;;;;;9.67;5.17;;;;;;;;;;5011091;28;20025;-78
2023/01/21 06:44:47;;;;;;;10.47;5.27;;;;;;;;;;5011076;28;20513;-77
2023/01/21 06:47:12;;;;;;;13.30;5.77;;;;;;;;;;5010920;28;20045;-78
2023/01/21 06:49:38;;;;;;;13.03;4.70;;;;;;;;;;5009880;28;20026;-78
2023/01/21 06:52:04;;;;;;;11.27;5.60;;;;;;;;;;5009808;28;20026;-77
2023/01/21 06:54:29;;;;;;;14.00;6.33;;;;;;;;;;5009353;28;20014;-77
2023/01/21 06:56:55;;;;;;;10.93;5.63;;;;;;;;;;5009739;28;20060;-78
2023/01/21 06:59:20;;;;;;;16.73;5.97;;;;;;;;;;5011950;28;20036;-78
2023/01/21 07:01:46;;;;;;;16.53;6.13;;;;;;;;;;5009848;28;20172;-78
2023/01/21 07:04:12;;;;;;;17.93;6.67;;;;;;;;;;4993135;28;20030;-77
2023/01/21 07:06:38;;;;;;;14.23;5.20;;;;;;;;;;5011138;28;20462;-78
2023/01/21 07:09:05;;;;;;;15.43;6.53;;;;;;;;;;5010459;28;20064;-78
2023/01/21 07:11:31;;;;;;;14.23;4.97;;;;;;;;;;5010488;28;20034;-78
2023/01/21 07:13:57;;;;;;;12.50;5.80;;;;;;;;;;5012565;28;20152;-78
2023/01/21 07:16:22;;;;;;;17.83;5.07;;;;;;;;;;5012157;28;20025;-77
2023/01/21 07:18:48;;;;;;;10.83;5.27;;;;;;;;;;5010684;28;20018;-78
2023/01/21 07:21:13;;;;;;;13.80;6.10;;;;;;;;;;5011522;28;20061;-78
2023/01/21 07:23:39;;;;;;;11.57;5.77;;;;;;;;;;5010511;28;20045;-77
2023/01/21 07:26:04;;;;;;;22.60;6.43;;;;;;;;;;5008995;28;20033;-77
2023/01/21 07:28:30;;;;;;;14.20;5.87;;;;;;;;;;5008654;28;20061;-77
2023/01/21 07:31:00;;;;;;;14.57;5.50;;;;;;;;;;5010477;28;20025;-78
2023/01/21 07:33:25;;;;;;;12.30;4.53;;;;;;;;;;5009102;28;20036;-77
2023/01/21 07:35:51;;;;;;;11.90;5.93;;;;;;;;;;5008887;28;20100;-78
2023/01/21 07:38:17;;;;;;;10.63;5.60;;;;;;;;;;5019756;28;20025;-77
2023/01/21 07:40:42;;;;;;;11.30;5.13;;;;;;;;;;5028821;28;20025;-78
2023/01/21 07:43:08;;;;;;;11.63;5.23;;;;;;;;;;5030356;28;20060;-77
2023/01/21 07:45:34;;;;;;;14.23;5.43;;;;;;;;;;5029987;28;20068;-78
2023/01/21 07:48:00;;;;;;;12.90;5.63;;;;;;;;;;5028723;28;20112;-77
2023/01/21 07:50:26;;;;;;;13.00;5.67;;;;;;;;;;5028657;28;20129;-77
2023/01/21 07:52:53;;;;;;;10.53;4.63;;;;;;;;;;5013291;28;20037;-79
2023/01/21 07:55:20;;;;;;;15.03;5.10;;;;;;;;;;5031749;28;20022;-78
2023/01/21 07:57:45;;;;;;;9.70;5.00;;;;;;;;;;5029274;28;20053;-78
2023/01/21 08:00:12;;;;;;;15.80;5.00;;;;;;;;;;5029879;28;20532;-78
2023/01/21 08:02:38;;;;;;;10.90;4.50;;;;;;;;;;5028996;28;20362;-77
2023/01/21 08:05:04;;;;;;;10.43;4.77;;;;;;;;;;5028462;28;20030;-78
2023/01/21 08:07:30;;;;;;;15.77;6.07;;;;;;;;;;5028267;28;20033;-77
2023/01/21 08:09:55;;;;;;;14.80;5.80;;;;;;;;;;5028150;28;20033;-78
2023/01/21 08:12:21;;;;;;;9.77;4.30;;;;;;;;;;5030283;28;20136;-77
2023/01/21 08:14:46;;;;;;;17.60;4.97;;;;;;;;;;5034905;28;20032;-77
2023/01/21 08:17:12;;;;;;;11.60;4.97;;;;;;;;;;5036177;28;20033;-77
2023/01/21 08:19:38;;;;;;;11.77;4.70;;;;;;;;;;5034839;28;20036;-78
2023/01/21 08:22:04;;;;;;;16.13;4.27;;;;;;;;;;5036783;28;20087;-77
2023/01/21 08:24:30;;;;;;;11.83;4.47;;;;;;;;;;5036166;28;20048;-77
2023/01/21 08:26:59;;;;;;;13.77;4.20;;;;;;;;;;5035734;28;20021;-76
2023/01/21 08:29:25;;;;;;;12.33;4.37;;;;;;;;;;5035198;28;20022;-76
2023/01/21 08:31:51;;;;;;;11.47;5.20;;;;;;;;;;5034571;28;20104;-76
2023/01/21 08:34:17;;;;;;;10.47;4.57;;;;;;;;;;5036485;28;20435;-77
2023/01/21 08:36:43;;;;;;;10.17;4.67;;;;;;;;;;5037299;28;20033;-76
2023/01/21 08:39:11;;;;;;;6.60;3.83;;;;;;;;;;5019338;28;20492;-77
2023/01/21 08:41:39;;;;;;;9.87;3.87;;;;;;;;;;5015449;28;20057;-76
2023/01/21 08:44:05;;;;;;;10.73;4.07;;;;;;;;;;5017105;28;20037;-76
2023/01/21 08:46:31;;;;;;;8.30;3.60;;;;;;;;;;5015228;28;20125;-76
2023/01/21 08:48:56;;;;;;;10.00;4.53;;;;;;;;;;5015541;28;20108;-76
2023/01/21 08:51:22;;;;;;;8.87;3.27;;;;;;;;;;5016004;28;20041;-77
2023/01/21 08:53:49;;;;;;;8.43;3.83;;;;;;;;;;5015558;28;20037;-76
2023/01/21 08:56:14;;;;;;;8.77;4.10;;;;;;;;;;5014251;28;20549;-76
2023/01/21 08:58:40;;;;;;;7.47;3.97;;;;;;;;;;5015318;28;20118;-75
2023/01/21 09:01:09;;;;;;;10.30;4.20;;;;;;;;;;5016667;28;20029;-77
2023/01/21 09:03:36;;;;;;;8.07;3.97;;;;;;;;;;5014608;28;20366;-77
2023/01/21 09:06:03;;;;;;;10.40;3.80;;;;;;;;;;5014682;28;20049;-76
2023/01/21 09:08:28;;;;;;;7.47;3.37;;;;;;;;;;5014206;28;20026;-76
2023/01/21 09:11:02;;;;;;;9.73;3.53;;;;;;;;;;5015639;28;20038;-77
2023/01/21 09:13:46;;;;;;;9.40;4.33;;;;;;;;;;4998154;28;20034;-76
2023/01/21 09:16:16;;;;;;;11.10;5.30;;;;;;;;;;5014630;28;20120;-76
2023/01/21 09:18:42;;;;;;;9.60;4.43;;;;;;;;;;5014377;28;20486;-76
2023/01/21 09:21:09;;;;;;;12.37;4.27;;;;;;;;;;5015395;28;20057;-77
2023/01/21 09:23:36;;;;;;;10.80;4.80;;;;;;;;;;4998846;28;20342;-76
2023/01/21 09:26:18;;;;;;;11.17;4.00;;;;;;;;;;5013950;28;20121;-77
2023/01/21 09:28:46;;;;;;;12.02;5.43;;;;;;;;;;5011747;28;20084;-76
2023/01/21 09:31:15;;;;;;;14.37;5.00;;;;;;;;;;4996137;28;20037;-76
2023/01/21 09:33:43;;;;;;;9.70;4.40;;;;;;;;;;5013792;28;20028;-76
2023/01/21 09:36:13;;;;;;;8.87;4.03;;;;;;;;;;5011800;28;20096;-77
2023/01/21 09:38:41;;;;;;;12.60;5.23;;;;;;;;;;5024429;28;20090;-75
2023/01/21 09:41:28;;;;;;;12.97;5.10;;;;;;;;;;5031950;28;20108;-77
2023/01/21 09:44:01;;;;;;;19.33;6.07;;;;;;;;;;5032341;28;20372;-76
2023/01/21 09:46:45;;;;;;;11.93;5.17;;;;;;;;;;5030576;28;20111;-76
2023/01/21 09:49:19;;;;;;;9.07;4.70;;;;;;;;;;5030997;28;20034;-76
2023/01/21 09:51:55;;;;;;;11.70;5.60;;;;;;;;;;5031834;28;20061;-79
2023/01/21 09:54:32;;;;;;;17.07;6.27;;;;;;;;;;5030197;28;20140;-78
2023/01/21 09:57:22;;;;;;;13.73;4.97;;;;;;;;;;5014413;28;20095;-77
2023/01/21 09:59:57;;;;;;;9.93;5.13;;;;;;;;;;5031816;28;20129;-78
2023/01/21 10:02:57;;;;;;;10.17;4.73;;;;;;;;;;5030210;28;20056;-77
2023/01/21 10:05:24;;;;;;;13.67;5.73;;;;;;;;;;5031738;28;20033;-76
2023/01/21 10:08:14;;;;;;;16.23;5.93;;;;;;;;;;5029915;28;20036;-76
2023/01/21 10:10:51;;;;;;;18.07;6.70;;;;;;;;;;5030777;28;20116;-77
2023/01/21 10:13:19;;;;;;;22.23;8.87;;;;;;;;;;5031747;28;20029;-77
2023/01/21 10:16:03;;;;;;;18.60;6.37;;;;;;;;;;5029932;28;20048;-76
2023/01/21 10:18:33;;;;;;;13.70;6.60;;;;;;;;;;5030422;28;20055;-75
2023/01/21 10:21:33;;;;;;;15.10;7.07;;;;;;;;;;5030241;28;20029;-77
2023/01/21 10:24:10;;;;;;;15.20;6.63;;;;;;;;;;5031742;28;20083;-76
2023/01/21 10:26:35;;;;;;;14.30;5.93;;;;;;;;;;5030170;28;20143;-77
2023/01/21 10:29:01;;;;;;;16.10;7.03;;;;;;;;;;5029614;28;20133;-77
2023/01/21 10:31:31;;;;;;;15.17;6.37;;;;;;;;;;5029857;28;20032;-76
2023/01/21 10:33:57;;;;;;;16.77;6.50;;;;;;;;;;5030509;28;20036;-76
2023/01/21 10:36:44;;;;;;;17.43;7.90;;;;;;;;;;5029153;28;20025;-75
2023/01/21 10:39:19;;;;;;;17.63;7.17;;;;;;;;;;5029436;28;20753;-77
2023/01/21 10:42:01;;;;;;;15.93;6.83;;;;;;;;;;5029620;28;20032;-75
2023/01/21 10:44:52;;;;;;;19.90;7.67;;;;;;;;;;5030003;28;20029;-78
2023/01/21 10:47:17;;;;;;;13.57;6.83;;;;;;;;;;5029433;28;20080;-76
2023/01/21 10:50:14;;;;;;;18.10;7.00;;;;;;;;;;5029128;28;20645;-76
2023/01/21 10:52:56;;;;;;;16.30;6.73;;;;;;;;;;5030638;28;20018;-77
2023/01/21 10:55:33;;;;;;;16.65;7.55;;;;;;;;;;5029392;28;20091;-76
2023/01/21 10:58:03;;;;;;;14.50;6.33;;;;;;;;;;5028758;28;20441;-75
2023/01/21 11:00:37;;;;;;;13.10;6.23;;;;;;;;;;5029750;28;20025;-76
2023/01/21 11:03:28;;;;;;;16.13;7.03;;;;;;;;;;5029789;28;20037;-75
2023/01/21 11:05:53;;;;;;;15.93;6.23;;;;;;;;;;5029112;28;20037;-76
2023/01/21 11:08:21;;;;;;;16.47;7.03;;;;;;;;;;5030726;28;20027;-76
2023/01/21 11:10:50;;;;;;;15.80;6.67;;;;;;;;;;5031976;28;20025;-76
2023/01/21 11:13:15;;;;;;;14.03;7.17;;;;;;;;;;5032884;28;20079;-78
2023/01/21 11:15:47;;;;;;;16.47;7.10;;;;;;;;;;5030347;28;20013;-77
2023/01/21 11:18:26;;;;;;;17.60;7.47;;;;;;;;;;5013735;28;20034;-76
2023/01/21 11:20:56;;;;;;;14.27;5.97;;;;;;;;;;5029566;28;20032;-77
2023/01/21 11:23:30;;;;;;;17.77;7.23;;;;;;;;;;5029110;28;20174;-76
2023/01/21 11:26:06;;;;;;;16.23;7.43;;;;;;;;;;5030309;28;20044;-76
2023/01/21 11:28:33;;;;;;;13.87;6.33;;;;;;;;;;5028990;28;20108;-78
2023/01/21 11:31:22;;;;;;;16.87;7.60;;;;;;;;;;5028948;28;20033;-76
2023/01/21 11:33:47;;;;;;;20.53;8.77;;;;;;;;;;5030378;28;20053;-75
2023/01/21 11:36:17;;;;;;;19.47;7.67;;;;;;;;;;5028925;28;20049;-76
2023/01/21 11:38:46;;;;;;;15.00;7.47;;;;;;;;;;5029030;28;20037;-75
2023/01/21 11:41:11;;;;;;;17.57;7.17;;;;;;;;;;5029046;28;20113;-76
2023/01/21 11:44:04;;;;;;;20.50;7.63;;;;;;;;;;5028763;28;20120;-77
2023/01/21 11:46:35;;;;;;;13.63;6.63;;;;;;;;;;5020007;28;20045;-78
2023/01/21 11:49:07;;;;;;;19.97;8.67;;;;;;;;;;5028332;28;20025;-75
2023/01/21 11:51:37;;;;;;;21.88;8.73;;;;;;;;;;5028921;28;20124;-79
2023/01/21 11:54:16;;;;;;;17.83;7.70;;;;;;;;;;5030981;28;20063;-77
2023/01/21 11:56:54;;;;;;;21.17;8.40;;;;;;;;;;5028987;28;20508;-77
2023/01/21 11:59:44;;;;;;;23.50;8.93;;;;;;;;;;5030792;28;20056;-76
2023/01/21 12:02:33;;;;;;;17.90;8.00;;;;;;;;;;5028888;28;20017;-76
2023/01/21 12:05:10;;;;;;;23.80;8.70;;;;;;;;;;5029664;28;20033;-75
2023/01/21 12:07:39;;;;;;;18.13;8.80;;;;;;;;;;5030318;28;20029;-76
2023/01/21 12:10:11;;;;;;;22.33;9.80;;;;;;;;;;5029014;28;20025;-76
2023/01/21 12:12:58;;;;;;;27.70;11.25;;;;;;;;;;5031193;28;20022;-76
2023/01/21 12:15:41;;;;;;;25.27;9.43;;;;;;;;;;5030395;28;20025;-76
2023/01/21 12:18:26;;;;;;;28.77;10.17;;;;;;;;;;5027592;28;20515;-77
2023/01/21 12:21:13;;;;;;;28.90;11.63;;;;;;;;;;5027615;28;20117;-78
2023/01/21 12:23:55;;;;;;;20.03;9.10;;;;;;;;;;5027745;28;20029;-78
2023/01/21 12:26:33;;;;;;;18.23;8.60;;;;;;;;;;5029261;28;20053;-75
2023/01/21 12:29:32;;;;;;;21.00;10.13;;;;;;;;;;5029045;28;20030;-76
2023/01/21 12:32:20;;;;;;;24.17;9.83;;;;;;;;;;5028989;28;20029;-75
2023/01/21 12:35:01;;;;;;;19.43;8.77;;;;;;;;;;5028594;28;20021;-75
2023/01/21 12:37:48;;;;;;;22.05;8.93;;;;;;;;;;5026179;28;20059;-76
2023/01/21 12:40:21;;;;;;;19.10;8.07;;;;;;;;;;5027582;28;20044;-75
2023/01/21 12:42:54;;;;;;;22.30;8.17;;;;;;;;;;5027247;28;20128;-76
2023/01/21 12:45:30;;;;;;;23.30;8.97;;;;;;;;;;5027207;28;20148;-76
2023/01/21 12:48:12;;;;;;;22.17;8.73;;;;;;;;;;5027460;28;20033;-77
2023/01/21 12:50:51;;;;;;;21.43;9.13;;;;;;;;;;5012928;28;20120;-76
2023/01/21 12:53:59;;;;;;;19.93;9.93;;;;;;;;;;5030124;28;20045;-75
2023/01/21 12:56:42;;;;;;;19.60;8.30;;;;;;;;;;4986818;28;20053;-76
2023/01/21 12:59:39;;;;;;;21.17;9.60;;;;;;;;;;5026752;28;20049;-76
2023/01/21 13:02:15;;;;;;;28.33;9.73;;;;;;;;;;5033242;28;20103;-77
2023/01/21 13:04:55;;;;;;;20.80;8.20;;;;;;;;;;5032718;28;20076;-75
2023/01/21 13:07:44;;;;;;;21.90;9.23;;;;;;;;;;5031377;28;20818;-76
2023/01/21 13:10:13;;;;;;;21.20;9.40;;;;;;;;;;5031156;28;20091;-76
2023/01/21 13:12:42;;;;;;;25.63;9.93;;;;;;;;;;5032381;28;20029;-76
2023/01/21 13:15:22;;;;;;;28.40;11.53;;;;;;;;;;5030941;28;20025;-76
2023/01/21 13:17:52;;;;;;;27.47;10.63;;;;;;;;;;5030949;28;20040;-75
2023/01/21 13:20:21;;;;;;;21.33;10.03;;;;;;;;;;5031135;28;20033;-76
2023/01/21 13:22:54;;;;;;;23.33;9.70;;;;;;;;;;5030963;28;20029;-74
2023/01/21 13:25:41;;;;;;;21.53;9.60;;;;;;;;;;5030628;28;20037;-74
2023/01/21 13:28:19;;;;;;;16.73;8.97;;;;;;;;;;5030330;28;20034;-76
2023/01/21 13:30:53;;;;;;;21.53;9.57;;;;;;;;;;5031163;28;20444;-76
2023/01/21 13:33:25;;;;;;;21.43;9.13;;;;;;;;;;5031094;28;20033;-75
2023/01/21 13:36:02;;;;;;;22.85;9.30;;;;;;;;;;5030894;28;20078;-75
2023/01/21 13:38:31;;;;;;;15.00;7.13;;;;;;;;;;5020276;28;20079;-75
2023/01/21 13:41:41;;;;;;;20.47;9.43;;;;;;;;;;5011394;28;20041;-76
2023/01/21 13:44:32;;;;;;;19.03;7.70;;;;;;;;;;5011824;28;20433;-75
2023/01/21 13:47:07;;;;;;;21.03;8.90;;;;;;;;;;5010944;28;20050;-76
2023/01/21 13:49:48;;;;;;;21.37;8.13;;;;;;;;;;5011104;28;20026;-75
2023/01/21 13:52:20;;;;;;;18.40;8.93;;;;;;;;;;5010580;28;20026;-75
2023/01/21 13:55:14;;;;;;;18.60;8.55;;;;;;;;;;5010719;28;20021;-75
2023/01/21 13:58:02;;;;;;;19.50;8.07;;;;;;;;;;5010272;28;20052;-76
2023/01/21 14:00:37;;;;;;;23.73;7.50;;;;;;;;;;5010738;28;20652;-77
2023/01/21 14:03:36;;;;;;;17.93;7.87;;;;;;;;;;5010681;28;20040;-76
2023/01/21 14:06:15;;;;;;;17.90;7.70;;;;;;;;;;4998769;28;20041;-75
2023/01/21 14:08:53;;;;;;;17.17;8.47;;;;;;;;;;5012073;28;20347;-76
2023/01/21 14:11:24;;;;;;;22.23;9.37;;;;;;;;;;5011405;28;20029;-75
2023/01/21 14:14:29;;;;;;;18.83;9.03;;;;;;;;;;5010597;28;20030;-75
2023/01/21 14:17:23;;;;;;;18.73;8.80;;;;;;;;;;5010046;28;20060;-76
2023/01/21 14:20:28;;;;;;;21.50;8.50;;;;;;;;;;5011667;28;20018;-75
2023/01/21 14:23:09;;;;;;;16.30;8.17;;;;;;;;;;5010246;28;20018;-76
2023/01/21 14:25:47;;;;;;;15.23;7.70;;;;;;;;;;5010200;28;20057;-74
2023/01/21 14:28:24;;;;;;;21.73;9.83;;;;;;;;;;5010149;28;20364;-74
2023/01/21 14:31:13;;;;;;;18.10;7.93;;;;;;;;;;5011237;28;20049;-74
2023/01/21 14:33:48;;;;;;;19.53;9.10;;;;;;;;;;5010894;28;20113;-75
2023/01/21 14:36:42;;;;;;;22.03;8.53;;;;;;;;;;5010328;28;20115;-75
2023/01/21 14:39:39;;;;;;;19.70;8.70;;;;;;;;;;5009923;28;20593;-77
2023/01/21 14:42:13;;;;;;;15.53;8.20;;;;;;;;;;5009635;28;20383;-75
2023/01/21 14:45:03;;;;;;;19.07;8.23;;;;;;;;;;5010020;28;20030;-76
2023/01/21 14:47:28;;;;;;;15.73;7.37;;;;;;;;;;5009175;28;20050;-76
2023/01/21 14:49:56;;;;;;;17.30;8.67;;;;;;;;;;5009452;28;20028;-75
2023/01/21 14:52:45;;;;;;;17.40;8.80;;;;;;;;;;5009713;28;20026;-74
2023/01/21 14:55:27;;;;;;;16.37;8.20;;;;;;;;;;5009750;28;20050;-75
2023/01/21 14:57:54;;;;;;;21.60;8.90;;;;;;;;;;5011355;28;20028;-75
2023/01/21 15:00:28;;;;;;;15.87;7.93;;;;;;;;;;5009479;28;20037;-74
2023/01/21 15:03:25;;;;;;;15.40;8.13;;;;;;;;;;5011246;28;20021;-75